createdAt,value
2023-05-20T00:00:42.870Z,67.16
2023-05-20T00:01:42.984Z,67.31
2023-05-20T00:02:43.195Z,67.26
2023-05-20T00:03:43.436Z,67.27
2023-05-20T00:04:43.457Z,67.31
2023-05-20T00:05:43.790Z,67.53
2023-05-20T00:06:43.597Z,67.58
2023-05-20T00:07:43.777Z,67.68
2023-05-20T00:08:43.886Z,67.81
2023-05-20T00:09:44.023Z,67.70
2023-05-20T00:10:44.136Z,67.65
2023-05-20T00:11:44.248Z,67.77
2023-05-20T00:12:44.462Z,67.74
2023-05-20T00:13:44.588Z,67.59
2023-05-20T00:14:44.717Z,67.86
2023-05-20T00:15:44.863Z,67.90
2023-05-20T00:16:45.006Z,67.85
2023-05-20T00:17:45.151Z,67.97
2023-05-20T00:18:45.246Z,68.01
2023-05-20T00:19:45.307Z,68.06
2023-05-20T00:20:45.415Z,68.07
2023-05-20T00:21:45.521Z,68.12
2023-05-20T00:22:45.672Z,68.12
2023-05-20T00:23:45.741Z,68.13
2023-05-20T00:24:45.850Z,68.19
2023-05-20T00:25:45.955Z,68.23
2023-05-20T00:26:46.054Z,68.36
2023-05-20T00:27:46.176Z,68.41
2023-05-20T00:28:46.283Z,68.47
2023-05-20T00:29:46.390Z,68.47
2023-05-20T00:30:46.528Z,68.74
2023-05-20T00:31:46.694Z,68.72
2023-05-20T00:32:46.807Z,68.71
2023-05-20T00:33:46.856Z,68.80
2023-05-20T00:34:46.998Z,68.95
2023-05-20T00:35:47.140Z,68.98
2023-05-20T00:36:47.250Z,69.00
2023-05-20T00:37:47.385Z,69.17
2023-05-20T00:38:47.543Z,69.27
2023-05-20T00:39:47.653Z,69.23
2023-05-20T00:40:47.825Z,69.20
2023-05-20T00:41:47.880Z,69.27
2023-05-20T00:42:48.005Z,69.25
2023-05-20T00:43:48.152Z,69.33
2023-05-20T00:44:48.251Z,69.39
2023-05-20T00:45:48.393Z,69.55
2023-05-20T00:46:48.489Z,69.62
2023-05-20T00:47:48.664Z,69.68
2023-05-20T00:48:48.700Z,69.94
2023-05-20T00:49:50.433Z,69.96
2023-05-20T00:50:48.948Z,69.84
2023-05-20T00:51:49.121Z,69.77
2023-05-20T00:52:49.256Z,69.85
2023-05-20T00:53:49.358Z,69.88
2023-05-20T00:54:49.452Z,70.03
2023-05-20T00:55:49.598Z,70.03
2023-05-20T00:56:49.753Z,70.12
2023-05-20T00:57:49.838Z,70.34
2023-05-20T00:58:49.921Z,70.22
2023-05-20T00:59:50.076Z,70.25
2023-05-20T01:00:50.161Z,70.22
2023-05-20T01:01:50.475Z,70.15
2023-05-20T01:02:50.512Z,70.22
2023-05-20T01:03:50.639Z,70.15
2023-05-20T01:04:50.727Z,70.24
2023-05-20T01:05:50.745Z,70.19
2023-05-20T01:06:50.892Z,70.19
2023-05-20T01:07:51.017Z,70.40
2023-05-20T01:08:51.132Z,70.26
2023-05-20T01:09:51.251Z,70.22
2023-05-20T01:10:51.413Z,70.31
2023-05-20T01:11:51.522Z,70.20
2023-05-20T01:12:51.693Z,70.23
2023-05-20T01:13:51.788Z,70.29
2023-05-20T01:14:51.949Z,70.39
2023-05-20T01:15:52.076Z,70.26
2023-05-20T01:16:52.198Z,70.27
2023-05-20T01:17:52.411Z,70.17
2023-05-20T01:18:52.544Z,70.16
2023-05-20T01:19:52.642Z,70.14
2023-05-20T01:20:52.755Z,70.14
2023-05-20T01:21:52.903Z,70.13
2023-05-20T01:22:53.038Z,70.12
2023-05-20T01:23:53.123Z,70.14
2023-05-20T01:24:53.236Z,70.19
2023-05-20T01:25:53.322Z,70.11
2023-05-20T01:26:53.434Z,70.13
2023-05-20T01:27:53.589Z,70.24
2023-05-20T01:28:53.672Z,70.20
2023-05-20T01:29:53.791Z,70.25
2023-05-20T01:30:53.925Z,70.23
2023-05-20T01:31:54.028Z,70.29
2023-05-20T01:32:54.198Z,70.23
2023-05-20T01:33:54.282Z,70.46
2023-05-20T01:34:54.381Z,70.42
2023-05-20T01:35:54.473Z,70.31
2023-05-20T01:36:54.629Z,70.28
2023-05-20T01:37:54.943Z,70.34
2023-05-20T01:38:54.813Z,70.36
2023-05-20T01:39:54.960Z,70.49
2023-05-20T01:40:55.121Z,70.51
2023-05-20T01:41:55.223Z,70.59
2023-05-20T01:42:55.335Z,70.66
2023-05-20T01:43:55.537Z,70.60
2023-05-20T01:44:55.615Z,70.58
2023-05-20T01:45:55.706Z,70.74
2023-05-20T01:46:55.895Z,70.82
2023-05-20T01:47:56.064Z,70.84
2023-05-20T01:48:56.105Z,70.85
2023-05-20T01:49:56.280Z,70.90
2023-05-20T01:50:56.373Z,71.00
2023-05-20T01:51:56.461Z,70.88
2023-05-20T01:52:56.572Z,70.94
2023-05-20T01:53:56.668Z,70.95
2023-05-20T01:54:56.826Z,71.04
2023-05-20T01:55:56.940Z,70.96
2023-05-20T01:56:57.040Z,70.99
2023-05-20T01:57:57.190Z,71.08
2023-05-20T01:58:57.273Z,71.19
2023-05-20T01:59:57.391Z,71.28
2023-05-20T02:00:57.610Z,71.30
2023-05-20T02:01:57.685Z,71.39
2023-05-20T02:02:57.846Z,71.40
2023-05-20T02:03:57.867Z,71.49
2023-05-20T02:04:57.998Z,71.56
2023-05-20T02:05:58.187Z,71.55
2023-05-20T02:06:58.228Z,71.61
2023-05-20T02:07:58.364Z,71.53
2023-05-20T02:08:58.474Z,71.52
2023-05-20T02:09:58.561Z,71.61
2023-05-20T02:10:58.758Z,71.62
2023-05-20T02:11:58.819Z,71.54
2023-05-20T02:12:58.927Z,71.62
2023-05-20T02:13:59.050Z,71.69
2023-05-20T02:14:59.194Z,71.77
2023-05-20T02:15:59.392Z,71.80
2023-05-20T02:16:59.588Z,71.78
2023-05-20T02:17:59.685Z,71.99
2023-05-20T02:18:59.825Z,71.93
2023-05-20T02:19:59.817Z,71.98
2023-05-20T02:20:59.991Z,71.89
2023-05-20T02:22:00.144Z,71.92
2023-05-20T02:23:00.346Z,71.96
2023-05-20T02:24:00.358Z,71.97
2023-05-20T02:25:00.494Z,72.02
2023-05-20T02:26:00.633Z,72.07
2023-05-20T02:27:00.780Z,72.20
2023-05-20T02:28:00.899Z,72.13
2023-05-20T02:29:01.025Z,72.20
2023-05-20T02:30:01.342Z,72.25
2023-05-20T02:31:01.353Z,72.28
2023-05-20T02:32:01.894Z,72.27
2023-05-20T02:33:02.007Z,72.34
2023-05-20T02:34:01.944Z,72.44
2023-05-20T02:35:02.088Z,72.39
2023-05-20T02:36:02.024Z,72.40
2023-05-20T02:37:02.023Z,72.39
2023-05-20T02:38:02.196Z,72.45
2023-05-20T02:39:02.313Z,72.42
2023-05-20T02:40:02.425Z,72.49
2023-05-20T02:41:02.534Z,72.44
2023-05-20T02:42:02.684Z,72.50
2023-05-20T02:43:02.855Z,72.51
2023-05-20T02:44:02.963Z,72.47
2023-05-20T02:45:03.068Z,72.63
2023-05-20T02:46:03.244Z,72.74
2023-05-20T02:47:03.334Z,72.71
2023-05-20T02:48:03.531Z,72.83
2023-05-20T02:49:03.642Z,72.85
2023-05-20T02:50:03.742Z,72.94
2023-05-20T02:51:03.861Z,72.87
2023-05-20T02:52:04.007Z,72.92
2023-05-20T02:53:04.214Z,73.00
2023-05-20T02:54:04.305Z,72.91
2023-05-20T02:55:04.422Z,72.88
2023-05-20T02:56:04.548Z,72.84
2023-05-20T02:57:04.672Z,72.85
2023-05-20T02:58:04.872Z,72.97
2023-05-20T02:59:04.967Z,72.99
2023-05-20T03:00:05.112Z,72.96
2023-05-20T03:01:05.245Z,73.04
2023-05-20T03:02:05.331Z,73.09
2023-05-20T03:03:05.590Z,73.16
2023-05-20T03:04:05.626Z,73.28
2023-05-20T03:05:05.707Z,73.31
2023-05-20T03:06:05.847Z,73.38
2023-05-20T03:07:05.986Z,73.52
2023-05-20T03:08:06.129Z,73.47
2023-05-20T03:09:06.289Z,73.65
2023-05-20T03:10:06.408Z,73.59
2023-05-20T03:11:06.814Z,73.52
2023-05-20T03:12:06.672Z,73.56
2023-05-20T03:13:06.829Z,73.51
2023-05-20T03:14:06.947Z,73.50
2023-05-20T03:15:07.078Z,73.61
2023-05-20T03:16:07.219Z,73.72
2023-05-20T03:17:07.332Z,73.77
2023-05-20T03:18:07.576Z,73.88
2023-05-20T03:19:07.614Z,73.94
2023-05-20T03:20:07.743Z,73.92
2023-05-20T03:21:07.839Z,74.00
2023-05-20T03:22:07.980Z,73.97
2023-05-20T03:23:08.167Z,74.12
2023-05-20T03:24:08.283Z,73.92
2023-05-20T03:25:08.370Z,74.09
2023-05-20T03:26:08.522Z,74.04
2023-05-20T03:27:08.642Z,74.10
2023-05-20T03:28:08.781Z,74.10
2023-05-20T03:29:08.991Z,74.29
2023-05-20T03:30:09.042Z,74.14
2023-05-20T03:31:09.204Z,74.33
2023-05-20T03:32:10.880Z,74.22
2023-05-20T03:33:09.456Z,74.31
2023-05-20T03:34:09.649Z,74.40
2023-05-20T03:35:09.692Z,74.37
2023-05-20T03:36:09.824Z,74.60
2023-05-20T03:37:09.971Z,74.47
2023-05-20T03:38:10.118Z,74.56
2023-05-20T03:39:10.238Z,74.68
2023-05-20T03:40:10.465Z,74.57
2023-05-20T03:41:10.509Z,74.58
2023-05-20T03:42:10.679Z,74.53
2023-05-20T03:43:10.777Z,74.55
2023-05-20T03:44:10.912Z,74.60
2023-05-20T03:45:11.111Z,74.61
2023-05-20T03:46:11.186Z,74.58
2023-05-20T03:47:11.267Z,74.54
2023-05-20T03:48:11.370Z,74.69
2023-05-20T03:49:11.500Z,74.73
2023-05-20T03:50:11.657Z,75.04
2023-05-20T03:51:11.767Z,74.75
2023-05-20T03:52:11.908Z,74.72
2023-05-20T03:53:12.060Z,74.76
2023-05-20T03:54:12.259Z,75.15
2023-05-20T03:55:12.351Z,74.94
2023-05-20T03:56:12.489Z,74.82
2023-05-20T03:57:12.622Z,74.85
2023-05-20T03:58:12.753Z,75.07
2023-05-20T03:59:12.948Z,74.91
2023-05-20T04:00:13.023Z,74.96
2023-05-20T04:01:13.197Z,75.19
2023-05-20T04:02:13.344Z,75.05
2023-05-20T04:03:13.497Z,75.06
2023-05-20T04:04:13.585Z,75.04
2023-05-20T04:05:13.717Z,75.12
2023-05-20T04:06:13.826Z,75.16
2023-05-20T04:07:13.924Z,75.27
2023-05-20T04:08:14.061Z,75.50
2023-05-20T04:09:14.206Z,75.72
2023-05-20T04:10:14.348Z,75.46
2023-05-20T04:11:14.490Z,75.47
2023-05-20T04:12:14.663Z,75.65
2023-05-20T04:13:14.782Z,75.83
2023-05-20T04:14:14.896Z,75.71
2023-05-20T04:15:15.131Z,75.80
2023-05-20T04:16:15.181Z,75.69
2023-05-20T04:17:15.275Z,75.49
2023-05-20T04:18:15.512Z,75.46
2023-05-20T04:19:15.585Z,75.48
2023-05-20T04:20:15.636Z,75.45
2023-05-20T04:21:15.810Z,75.50
2023-05-20T04:22:15.876Z,75.40
2023-05-20T04:23:16.025Z,75.43
2023-05-20T04:24:16.160Z,75.51
2023-05-20T04:25:16.334Z,75.57
2023-05-20T04:26:16.458Z,75.60
2023-05-20T04:27:16.569Z,75.61
2023-05-20T04:28:16.711Z,75.68
2023-05-20T04:29:16.849Z,75.68
2023-05-20T04:30:16.952Z,75.66
2023-05-20T04:31:17.154Z,75.78
2023-05-20T04:32:17.304Z,75.78
2023-05-20T04:33:17.348Z,75.95
2023-05-20T04:34:17.530Z,76.07
2023-05-20T04:35:17.606Z,76.05
2023-05-20T04:36:17.748Z,76.03
2023-05-20T04:37:17.881Z,75.83
2023-05-20T04:38:17.987Z,75.89
2023-05-20T04:39:18.166Z,75.99
2023-05-20T04:40:18.256Z,76.13
2023-05-20T04:41:18.405Z,76.01
2023-05-20T04:42:18.588Z,75.89
2023-05-20T04:43:18.644Z,76.26
2023-05-20T04:44:18.778Z,76.21
2023-05-20T04:45:18.974Z,76.06
2023-05-20T04:46:19.138Z,76.22
2023-05-20T04:47:19.186Z,76.16
2023-05-20T04:48:19.270Z,76.24
2023-05-20T04:49:19.406Z,76.26
2023-05-20T04:50:19.536Z,76.27
2023-05-20T04:51:19.670Z,76.36
2023-05-20T04:52:19.875Z,76.43
2023-05-20T04:53:19.920Z,76.42
2023-05-20T04:54:20.065Z,76.26
2023-05-20T04:55:20.210Z,76.05
2023-05-20T04:56:20.357Z,76.02
2023-05-20T04:57:20.528Z,76.23
2023-05-20T04:58:20.587Z,76.23
2023-05-20T04:59:20.732Z,76.30
2023-05-20T05:00:20.878Z,76.11
2023-05-20T05:01:21.001Z,75.96
2023-05-20T05:02:21.116Z,75.90
2023-05-20T05:03:21.255Z,75.90
2023-05-20T05:04:21.406Z,75.69
2023-05-20T05:05:21.568Z,75.51
2023-05-20T05:06:21.716Z,75.66
2023-05-20T05:07:21.790Z,75.65
2023-05-20T05:08:21.967Z,75.77
2023-05-20T05:09:22.059Z,75.30
2023-05-20T05:10:22.187Z,75.23
2023-05-20T05:11:26.026Z,76.06
2023-05-20T05:12:22.444Z,75.28
2023-05-20T05:13:22.595Z,75.28
2023-05-20T05:14:22.743Z,75.47
2023-05-20T05:15:22.828Z,75.30
2023-05-20T05:16:23.038Z,74.36
2023-05-20T05:17:23.090Z,74.20
2023-05-20T05:18:23.265Z,73.84
2023-05-20T05:19:23.595Z,73.80
2023-05-20T05:20:23.433Z,72.93
2023-05-20T05:21:23.568Z,72.38
2023-05-20T05:22:23.670Z,72.25
2023-05-20T05:23:23.773Z,71.62
2023-05-20T05:24:23.930Z,71.32
2023-05-20T05:25:24.044Z,71.88
2023-05-20T05:26:24.218Z,71.65
2023-05-20T05:27:24.318Z,71.03
2023-05-20T05:28:24.423Z,70.82
2023-05-20T05:29:24.593Z,71.25
2023-05-20T05:30:24.699Z,70.06
2023-05-20T05:31:24.867Z,70.32
2023-05-20T05:32:25.039Z,70.08
2023-05-20T05:33:25.114Z,70.61
2023-05-20T05:34:25.171Z,70.14
2023-05-20T05:35:25.331Z,68.63
2023-05-20T05:36:25.428Z,68.66
2023-05-20T05:37:25.545Z,68.20
2023-05-20T05:38:25.668Z,68.33
2023-05-20T05:39:25.811Z,68.23
2023-05-20T05:40:25.927Z,68.50
2023-05-20T05:41:26.009Z,68.03
2023-05-20T05:42:26.166Z,67.85
2023-05-20T05:43:26.265Z,67.97
2023-05-20T05:44:26.395Z,68.07
2023-05-20T05:45:26.473Z,67.13
2023-05-20T05:46:26.604Z,67.21
2023-05-20T05:47:26.752Z,67.33
2023-05-20T05:48:26.825Z,66.95
2023-05-20T05:49:27.018Z,65.83
2023-05-20T05:50:27.163Z,66.12
2023-05-20T05:51:27.206Z,66.49
2023-05-20T05:52:27.362Z,65.17
2023-05-20T05:53:27.454Z,65.67
2023-05-20T05:54:27.628Z,66.25
2023-05-20T05:55:27.732Z,65.34
2023-05-20T05:56:27.830Z,65.80
2023-05-20T05:57:27.994Z,65.26
2023-05-20T05:58:28.086Z,65.31
2023-05-20T05:59:28.191Z,65.36
2023-05-20T06:00:28.297Z,64.36
2023-05-20T06:01:28.501Z,64.67
2023-05-20T06:02:28.642Z,63.56
2023-05-20T06:03:28.764Z,64.22
2023-05-20T06:04:28.910Z,63.30
2023-05-20T06:05:29.855Z,64.06
2023-05-20T06:06:29.062Z,65.19
2023-05-20T06:07:29.155Z,64.69
2023-05-20T06:08:29.315Z,62.60
2023-05-20T06:09:29.410Z,63.93
2023-05-20T06:10:29.575Z,64.33
2023-05-20T06:11:29.721Z,64.94
2023-05-20T06:12:29.822Z,63.20
2023-05-20T06:13:29.945Z,62.37
2023-05-20T06:14:30.037Z,63.68
2023-05-20T06:15:30.137Z,63.87
2023-05-20T06:16:30.281Z,63.58
2023-05-20T06:17:30.369Z,62.56
2023-05-20T06:18:30.548Z,62.04
2023-05-20T06:19:30.667Z,61.23
2023-05-20T06:20:30.764Z,62.59
2023-05-20T06:21:30.914Z,60.93
2023-05-20T06:22:31.027Z,61.24
2023-05-20T06:23:31.128Z,60.28
2023-05-20T06:24:31.262Z,62.22
2023-05-20T06:25:31.423Z,61.97
2023-05-20T06:26:31.491Z,60.18
2023-05-20T06:27:31.651Z,61.54
2023-05-20T06:28:31.740Z,60.98
2023-05-20T06:29:31.824Z,60.15
2023-05-20T06:30:32.015Z,59.97
2023-05-20T06:31:32.127Z,60.75
2023-05-20T06:32:32.224Z,61.83
2023-05-20T06:33:32.320Z,61.04
2023-05-20T06:34:32.408Z,59.74
2023-05-20T06:35:32.723Z,60.46
2023-05-20T06:36:33.769Z,59.44
2023-05-20T06:37:32.889Z,60.40
2023-05-20T06:38:32.916Z,59.03
2023-05-20T06:39:33.057Z,59.85
2023-05-20T06:40:33.153Z,59.12
2023-05-20T06:41:33.309Z,59.64
2023-05-20T06:42:33.438Z,59.86
2023-05-20T06:43:33.572Z,58.97
2023-05-20T06:44:33.726Z,57.98
2023-05-20T06:45:34.042Z,57.85
2023-05-20T06:46:33.902Z,57.83
2023-05-20T06:47:34.066Z,59.30
2023-05-20T06:48:34.104Z,58.74
2023-05-20T06:49:34.293Z,58.18
2023-05-20T06:50:34.374Z,57.39
2023-05-20T06:51:34.514Z,57.89
2023-05-20T06:52:34.630Z,58.33
2023-05-20T06:53:34.755Z,58.29
2023-05-20T06:54:34.935Z,58.11
2023-05-20T06:55:35.235Z,57.06
2023-05-20T06:56:35.178Z,57.22
2023-05-20T06:57:35.307Z,57.36
2023-05-20T06:58:35.390Z,57.43
2023-05-20T06:59:35.587Z,58.74
2023-05-20T07:00:35.696Z,56.64
2023-05-20T07:01:35.851Z,56.92
2023-05-20T07:02:35.995Z,56.95
2023-05-20T07:03:36.172Z,56.24
2023-05-20T07:04:36.229Z,54.60
2023-05-20T07:05:36.512Z,56.27
2023-05-20T07:06:36.455Z,55.13
2023-05-20T07:07:36.528Z,55.24
2023-05-20T07:08:36.619Z,55.04
2023-05-20T07:09:36.782Z,57.18
2023-05-20T07:10:36.889Z,56.46
2023-05-20T07:11:36.990Z,55.05
2023-05-20T07:12:37.199Z,54.56
2023-05-20T07:13:37.266Z,56.49
2023-05-20T07:14:37.431Z,53.72
2023-05-20T07:15:37.528Z,53.01
2023-05-20T07:16:37.704Z,54.95
2023-05-20T07:17:37.774Z,54.30
2023-05-20T07:18:37.875Z,53.40
2023-05-20T07:19:37.971Z,54.06
2023-05-20T07:20:38.066Z,52.82
2023-05-20T07:21:38.211Z,53.89
2023-05-20T07:22:38.348Z,53.89
2023-05-20T07:23:38.494Z,53.23
2023-05-20T07:24:38.681Z,54.00
2023-05-20T07:25:38.812Z,53.16
2023-05-20T07:26:38.918Z,52.99
2023-05-20T07:27:39.015Z,53.87
2023-05-20T07:28:39.103Z,52.10
2023-05-20T07:29:39.242Z,52.90
2023-05-20T07:30:39.386Z,54.11
2023-05-20T07:31:39.510Z,52.75
2023-05-20T07:32:39.616Z,52.98
2023-05-20T07:33:39.738Z,52.97
2023-05-20T07:34:39.801Z,54.75
2023-05-20T07:35:39.917Z,55.25
2023-05-20T07:36:40.043Z,54.45
2023-05-20T07:37:40.154Z,54.69
2023-05-20T07:38:41.241Z,55.07
2023-05-20T07:39:40.441Z,53.93
2023-05-20T07:40:40.623Z,54.32
2023-05-20T07:41:40.732Z,53.77
2023-05-20T07:42:40.848Z,53.95
2023-05-20T07:43:40.967Z,52.16
2023-05-20T07:44:41.053Z,51.68
2023-05-20T07:45:41.174Z,53.15
2023-05-20T07:46:41.417Z,52.77
2023-05-20T07:47:41.438Z,51.99
2023-05-20T07:48:41.561Z,52.63
2023-05-20T07:49:41.619Z,52.09
2023-05-20T07:50:41.750Z,51.48
2023-05-20T07:51:41.866Z,51.66
2023-05-20T07:52:55.038Z,52.88
2023-05-20T07:53:43.141Z,53.87
2023-05-20T07:54:42.210Z,54.65
2023-05-20T07:55:42.337Z,52.25
2023-05-20T07:56:42.477Z,51.51
2023-05-20T07:57:44.701Z,51.93
2023-05-20T07:58:42.740Z,50.71
2023-05-20T07:59:42.870Z,53.48
2023-05-20T08:00:43.012Z,52.63
2023-05-20T08:01:43.124Z,51.94
2023-05-20T08:02:43.363Z,52.03
2023-05-20T08:03:43.437Z,52.71
2023-05-20T08:04:43.577Z,51.62
2023-05-20T08:05:43.572Z,51.14
2023-05-20T08:06:43.672Z,51.76
2023-05-20T08:07:43.773Z,52.38
2023-05-20T08:08:43.880Z,53.40
2023-05-20T08:09:43.989Z,50.52
2023-05-20T08:10:44.116Z,51.13
2023-05-20T08:11:45.807Z,52.32
2023-05-20T08:12:44.456Z,51.08
2023-05-20T08:13:44.504Z,51.91
2023-05-20T08:14:44.715Z,53.18
2023-05-20T08:15:44.773Z,52.65
2023-05-20T08:16:44.992Z,52.01
2023-05-20T08:17:45.062Z,53.09
2023-05-20T08:18:45.195Z,53.25
2023-05-20T08:19:45.303Z,51.29
2023-05-20T08:20:45.396Z,52.20
2023-05-20T08:21:45.546Z,50.75
2023-05-20T08:22:45.671Z,51.48
2023-05-20T08:23:45.786Z,51.71
2023-05-20T08:24:45.901Z,50.70
2023-05-20T08:25:46.003Z,51.60
2023-05-20T08:26:46.100Z,53.08
2023-05-20T08:27:46.227Z,52.99
2023-05-20T08:28:46.377Z,49.42
2023-05-20T08:29:46.545Z,50.97
2023-05-20T08:30:46.703Z,49.52
2023-05-20T08:31:46.778Z,48.75
2023-05-20T08:32:46.953Z,48.99
2023-05-20T08:33:47.087Z,48.88
2023-05-20T08:34:47.184Z,50.27
2023-05-20T08:35:47.341Z,50.05
2023-05-20T08:36:47.476Z,50.86
2023-05-20T08:37:47.604Z,50.21
2023-05-20T08:38:47.777Z,48.89
2023-05-20T08:39:47.897Z,49.20
2023-05-20T08:40:48.034Z,50.55
2023-05-20T08:41:48.148Z,50.28
2023-05-20T08:42:48.283Z,51.75
2023-05-20T08:43:48.400Z,49.12
2023-05-20T08:44:48.507Z,49.31
2023-05-20T08:45:48.597Z,49.91
2023-05-20T08:46:48.894Z,50.20
2023-05-20T08:47:48.920Z,50.43
2023-05-20T08:48:48.998Z,49.88
2023-05-20T08:49:49.163Z,50.39
2023-05-20T08:50:49.286Z,50.46
2023-05-20T08:51:49.390Z,52.33
2023-05-20T08:52:49.485Z,51.59
2023-05-20T08:53:49.626Z,50.83
2023-05-20T08:54:49.745Z,49.29
2023-05-20T08:55:49.857Z,50.39
2023-05-20T08:56:49.996Z,50.00
2023-05-20T08:57:50.168Z,49.54
2023-05-20T08:58:50.240Z,49.86
2023-05-20T08:59:50.513Z,50.81
2023-05-20T09:00:50.496Z,50.08
2023-05-20T09:01:50.663Z,50.41
2023-05-20T09:02:50.816Z,52.00
2023-05-20T09:03:50.911Z,50.84
2023-05-20T09:04:51.117Z,51.12
2023-05-20T09:05:51.161Z,51.45
2023-05-20T09:06:51.316Z,51.06
2023-05-20T09:07:51.385Z,50.85
2023-05-20T09:08:51.544Z,53.50
2023-05-20T09:09:51.713Z,54.50
2023-05-20T09:10:51.764Z,54.42
2023-05-20T09:11:51.916Z,52.98
2023-05-20T09:12:52.037Z,52.95
2023-05-20T09:13:52.152Z,50.20
2023-05-20T09:14:52.334Z,52.56
2023-05-20T09:15:52.513Z,50.95
2023-05-20T09:16:52.545Z,52.54
2023-05-20T09:17:52.670Z,52.11
2023-05-20T09:18:52.774Z,52.07
2023-05-20T09:19:52.880Z,50.40
2023-05-20T09:20:53.047Z,49.80
2023-05-20T09:21:53.081Z,49.61
2023-05-20T09:22:53.237Z,50.11
2023-05-20T09:23:53.358Z,49.87
2023-05-20T09:24:53.484Z,51.35
2023-05-20T09:25:53.568Z,50.20
2023-05-20T09:26:53.806Z,52.68
2023-05-20T09:27:53.862Z,51.46
2023-05-20T09:28:54.018Z,52.61
2023-05-20T09:29:54.168Z,52.13
2023-05-20T09:30:54.308Z,53.19
2023-05-20T09:31:54.478Z,53.78
2023-05-20T09:32:54.566Z,52.56
2023-05-20T09:33:54.696Z,51.37
2023-05-20T09:34:54.839Z,50.44
2023-05-20T09:35:54.999Z,49.43
2023-05-20T09:36:55.150Z,50.28
2023-05-20T09:37:55.292Z,49.78
2023-05-20T09:38:55.413Z,49.32
2023-05-20T09:39:55.509Z,49.93
2023-05-20T09:40:55.673Z,50.31
2023-05-20T09:41:55.794Z,52.35
2023-05-20T09:42:55.914Z,49.82
2023-05-20T09:43:55.999Z,49.98
2023-05-20T09:44:56.146Z,52.09
2023-05-20T09:45:56.340Z,51.60
2023-05-20T09:46:56.415Z,50.13
2023-05-20T09:47:56.574Z,49.09
2023-05-20T09:48:56.652Z,49.77
2023-05-20T09:49:56.785Z,49.99
2023-05-20T09:50:56.872Z,49.61
2023-05-20T09:51:57.015Z,49.21
2023-05-20T09:52:57.126Z,49.13
2023-05-20T09:53:57.217Z,50.75
2023-05-20T09:54:57.366Z,50.75
2023-05-20T09:55:57.545Z,50.06
2023-05-20T09:56:57.734Z,50.80
2023-05-20T09:57:57.750Z,50.48
2023-05-20T09:58:57.928Z,50.21
2023-05-20T09:59:58.022Z,50.37
2023-05-20T10:00:58.205Z,49.28
2023-05-20T10:01:58.506Z,49.99
2023-05-20T10:02:58.573Z,49.40
2023-05-20T10:03:58.595Z,48.88
2023-05-20T10:04:58.654Z,50.08
2023-05-20T10:05:58.813Z,50.09
2023-05-20T10:06:58.962Z,49.88
2023-05-20T10:07:59.064Z,48.81
2023-05-20T10:08:59.225Z,48.41
2023-05-20T10:09:59.283Z,48.12
2023-05-20T10:10:59.388Z,48.22
2023-05-20T10:11:59.489Z,48.29
2023-05-20T10:12:59.590Z,48.16
2023-05-20T10:13:59.719Z,49.39
2023-05-20T10:14:59.803Z,50.38
2023-05-20T10:16:00.017Z,50.26
2023-05-20T10:17:00.143Z,49.63
2023-05-20T10:18:00.301Z,50.53
2023-05-20T10:19:00.389Z,50.29
2023-05-20T10:20:00.464Z,50.23
2023-05-20T10:21:00.543Z,49.81
2023-05-20T10:22:00.661Z,49.62
2023-05-20T10:23:00.768Z,51.66
2023-05-20T10:24:02.771Z,50.94
2023-05-20T10:25:01.024Z,50.72
2023-05-20T10:26:01.152Z,48.48
2023-05-20T10:27:01.316Z,49.66
2023-05-20T10:28:01.589Z,50.48
2023-05-20T10:29:01.571Z,51.73
2023-05-20T10:30:01.677Z,53.62
2023-05-20T10:31:01.821Z,50.90
2023-05-20T10:32:01.940Z,51.30
2023-05-20T10:33:02.226Z,53.31
2023-05-20T10:34:02.218Z,51.62
2023-05-20T10:35:02.348Z,51.47
2023-05-20T10:36:02.440Z,51.71
2023-05-20T10:37:02.582Z,52.78
2023-05-20T10:38:02.776Z,52.45
2023-05-20T10:39:02.859Z,51.54
2023-05-20T10:40:03.012Z,52.58
2023-05-20T10:41:03.165Z,52.45
2023-05-20T10:42:03.272Z,51.70
2023-05-20T10:43:03.407Z,52.87
2023-05-20T10:44:03.581Z,52.57
2023-05-20T10:45:03.652Z,52.03
2023-05-20T10:46:10.380Z,52.05
2023-05-20T10:48:04.067Z,51.09
2023-05-20T10:49:04.257Z,51.60
2023-05-20T10:50:04.235Z,51.55
2023-05-20T10:51:04.338Z,52.07
2023-05-20T10:52:04.469Z,52.09
2023-05-20T10:53:04.567Z,51.51
2023-05-20T10:54:04.655Z,52.53
2023-05-20T10:55:04.836Z,52.48
2023-05-20T10:56:04.898Z,51.93
2023-05-20T10:57:05.012Z,52.91
2023-05-20T10:58:05.104Z,52.67
2023-05-20T10:59:05.265Z,51.94
2023-05-20T11:00:05.442Z,51.42
2023-05-20T11:01:05.512Z,52.89
2023-05-20T11:02:05.624Z,53.91
2023-05-20T11:03:05.897Z,53.76
2023-05-20T11:04:06.042Z,52.93
2023-05-20T11:05:06.027Z,51.82
2023-05-20T11:06:06.113Z,52.27
2023-05-20T11:07:06.273Z,53.22
2023-05-20T11:08:16.871Z,53.96
2023-05-20T11:09:07.480Z,52.83
2023-05-20T11:10:06.652Z,50.79
2023-05-20T11:11:06.735Z,51.10
2023-05-20T11:12:06.885Z,49.07
2023-05-20T11:13:07.132Z,50.22
2023-05-20T11:14:07.235Z,48.61
2023-05-20T11:15:07.281Z,49.06
2023-05-20T11:16:07.433Z,48.68
2023-05-20T11:17:07.569Z,50.26
2023-05-20T11:18:07.758Z,50.52
2023-05-20T11:19:07.993Z,50.48
2023-05-20T11:20:07.892Z,50.21
2023-05-20T11:21:08.061Z,49.98
2023-05-20T11:22:08.136Z,50.47
2023-05-20T11:23:08.212Z,50.50
2023-05-20T11:24:08.476Z,51.84
2023-05-20T11:25:08.502Z,50.69
2023-05-20T11:26:08.609Z,48.77
2023-05-20T11:27:08.697Z,48.93
2023-05-20T11:28:08.844Z,49.76
2023-05-20T11:29:08.982Z,51.25
2023-05-20T11:30:09.103Z,51.91
2023-05-20T11:31:09.216Z,49.61
2023-05-20T11:32:09.358Z,49.49
2023-05-20T11:33:09.533Z,49.17
2023-05-20T11:34:09.591Z,50.35
2023-05-20T11:35:09.752Z,49.57
2023-05-20T11:36:23.888Z,50.64
2023-05-20T11:37:10.957Z,49.34
2023-05-20T11:38:10.036Z,50.55
2023-05-20T11:39:10.118Z,49.60
2023-05-20T11:40:10.316Z,50.18
2023-05-20T11:41:10.392Z,49.35
2023-05-20T11:42:10.539Z,51.05
2023-05-20T11:43:10.688Z,50.49
2023-05-20T11:44:10.835Z,52.03
2023-05-20T11:45:11.000Z,51.56
2023-05-20T11:46:11.141Z,51.27
2023-05-20T11:47:11.230Z,52.21
2023-05-20T11:48:11.477Z,51.14
2023-05-20T11:49:11.535Z,50.31
2023-05-20T11:50:11.620Z,50.10
2023-05-20T11:51:11.760Z,49.55
2023-05-20T11:52:11.848Z,49.49
2023-05-20T11:53:12.001Z,51.26
2023-05-20T11:54:12.114Z,52.38
2023-05-20T11:55:12.280Z,51.24
2023-05-20T11:56:12.404Z,53.41
2023-05-20T11:57:12.510Z,50.94
2023-05-20T11:58:12.658Z,49.86
2023-05-20T11:59:12.770Z,50.31
2023-05-20T12:00:12.931Z,52.82
2023-05-20T12:01:21.512Z,51.15
2023-05-20T12:02:15.954Z,51.79
2023-05-20T12:03:13.433Z,50.54
2023-05-20T12:04:13.761Z,50.88
2023-05-20T12:05:13.509Z,52.00
2023-05-20T12:06:13.693Z,50.20
2023-05-20T12:07:13.785Z,51.36
2023-05-20T12:08:13.904Z,52.23
2023-05-20T12:09:14.074Z,51.24
2023-05-20T12:10:14.179Z,49.47
2023-05-20T12:11:14.285Z,50.12
2023-05-20T12:12:14.405Z,49.16
2023-05-20T12:13:14.500Z,50.02
2023-05-20T12:14:14.645Z,48.76
2023-05-20T12:15:14.688Z,50.12
2023-05-20T12:16:14.855Z,49.73
2023-05-20T12:17:14.968Z,49.82
2023-05-20T12:18:15.060Z,49.10
2023-05-20T12:19:15.236Z,49.88
2023-05-20T12:20:15.279Z,49.76
2023-05-20T12:21:15.414Z,48.83
2023-05-20T12:22:15.573Z,48.97
2023-05-20T12:23:15.657Z,49.11
2023-05-20T12:24:15.932Z,49.83
2023-05-20T12:25:15.916Z,49.53
2023-05-20T12:26:16.073Z,48.93
2023-05-20T12:27:16.226Z,49.26
2023-05-20T12:28:16.338Z,50.81
2023-05-20T12:29:16.511Z,49.69
2023-05-20T12:30:16.564Z,50.02
2023-05-20T12:31:16.683Z,50.04
2023-05-20T12:32:16.829Z,50.34
2023-05-20T12:33:16.940Z,50.16
2023-05-20T12:34:17.035Z,51.28
2023-05-20T12:35:17.163Z,51.62
2023-05-20T12:36:17.278Z,51.47
2023-05-20T12:37:17.401Z,52.22
2023-05-20T12:38:17.576Z,52.25
2023-05-20T12:39:17.677Z,52.47
2023-05-20T12:40:17.756Z,52.35
2023-05-20T12:41:17.936Z,52.23
2023-05-20T12:42:18.055Z,53.97
2023-05-20T12:43:18.146Z,52.76
2023-05-20T12:44:18.337Z,52.29
2023-05-20T12:45:18.377Z,54.05
2023-05-20T12:46:18.510Z,52.30
2023-05-20T12:47:18.699Z,52.19
2023-05-20T12:48:18.802Z,52.54
2023-05-20T12:49:18.920Z,54.05
2023-05-20T12:50:19.005Z,52.93
2023-05-20T12:51:19.158Z,53.86
2023-05-20T12:52:22.806Z,54.02
2023-05-20T12:53:19.432Z,54.40
2023-05-20T12:54:19.549Z,54.10
2023-05-20T12:55:19.640Z,53.73